CTV9798 WIII-WAHS
Flight info
| Callsign | CTV9798 |
|---|---|
| Flight time | N/A |
| Altitude | 23000 |
| Route | CA |
| Aircraft | A320/M-SDE3FGHIRWY/LB1 |
Departure
| Time | N/A |
|---|---|
| Airport | Soekarno-Hatta International Airport (WIII) |
Arrival
| Time | 2026-05-07 01:58 |
|---|---|
| Airport | Jenderal Ahmad Yani Airport (WAHS) |
| Time | Latitude | Longitude | Altitude | Speed | Heading |
|---|---|---|---|---|---|
| 2026-05-07 01:27 | -6.58756 | 107.62518 | 22924 ft | 406 kts | 96° |
| 2026-05-07 01:27 | -6.59092 | 107.65334 | 22924 ft | 406 kts | 96° |
| 2026-05-07 01:27 | -6.59427 | 107.68150 | 22925 ft | 405 kts | 96° |
| 2026-05-07 01:28 | -6.59762 | 107.70966 | 22925 ft | 406 kts | 96° |
| 2026-05-07 01:28 | -6.60098 | 107.73782 | 22924 ft | 405 kts | 96° |
| 2026-05-07 01:28 | -6.60436 | 107.76596 | 22925 ft | 405 kts | 96° |
| 2026-05-07 01:28 | -6.60774 | 107.79412 | 22924 ft | 405 kts | 96° |
| 2026-05-07 01:29 | -6.61110 | 107.82227 | 22925 ft | 405 kts | 96° |
| 2026-05-07 01:29 | -6.61444 | 107.85039 | 22925 ft | 405 kts | 96° |
| 2026-05-07 01:29 | -6.61776 | 107.87856 | 22923 ft | 405 kts | 96° |
| 2026-05-07 01:29 | -6.62111 | 107.90672 | 22922 ft | 405 kts | 96° |
| 2026-05-07 01:30 | -6.62446 | 107.93488 | 22922 ft | 405 kts | 96° |
| 2026-05-07 01:30 | -6.62780 | 107.96303 | 22923 ft | 406 kts | 96° |
| 2026-05-07 01:30 | -6.63115 | 107.99120 | 22925 ft | 406 kts | 96° |
| 2026-05-07 01:30 | -6.63447 | 108.01937 | 22925 ft | 406 kts | 96° |
| 2026-05-07 01:31 | -6.63779 | 108.04754 | 22924 ft | 406 kts | 96° |
| 2026-05-07 01:31 | -6.64117 | 108.07607 | 22923 ft | 405 kts | 96° |
| 2026-05-07 01:31 | -6.64446 | 108.10381 | 22920 ft | 405 kts | 96° |
| 2026-05-07 01:31 | -6.64779 | 108.13195 | 22917 ft | 405 kts | 96° |
| 2026-05-07 01:32 | -6.65112 | 108.16045 | 22914 ft | 405 kts | 96° |
| 2026-05-07 01:32 | -6.65440 | 108.18864 | 22916 ft | 405 kts | 96° |
| 2026-05-07 01:32 | -6.65772 | 108.21678 | 22915 ft | 405 kts | 96° |
| 2026-05-07 01:32 | -6.66102 | 108.24458 | 22915 ft | 405 kts | 96° |
| 2026-05-07 01:33 | -6.66440 | 108.27307 | 22904 ft | 405 kts | 96° |
| 2026-05-07 01:33 | -6.66774 | 108.30125 | 22904 ft | 405 kts | 96° |
| 2026-05-07 01:33 | -6.67106 | 108.32938 | 22913 ft | 406 kts | 96° |
| 2026-05-07 01:33 | -6.67436 | 108.35758 | 22917 ft | 406 kts | 96° |
| 2026-05-07 01:34 | -6.67765 | 108.38576 | 22913 ft | 406 kts | 96° |
| 2026-05-07 01:34 | -6.68094 | 108.41397 | 22903 ft | 406 kts | 96° |
| 2026-05-07 01:34 | -6.68424 | 108.44217 | 22918 ft | 406 kts | 96° |
| 2026-05-07 01:34 | -6.68753 | 108.47040 | 22917 ft | 406 kts | 96° |
| 2026-05-07 01:35 | -6.69083 | 108.49861 | 22917 ft | 406 kts | 96° |
| 2026-05-07 01:35 | -6.69414 | 108.52684 | 22918 ft | 406 kts | 96° |
| 2026-05-07 01:35 | -6.69743 | 108.55506 | 22920 ft | 406 kts | 96° |
| 2026-05-07 01:35 | -6.70104 | 108.58324 | 22923 ft | 406 kts | 98° |
| 2026-05-07 01:36 | -6.70534 | 108.61133 | 22925 ft | 406 kts | 99° |
| 2026-05-07 01:36 | -6.71004 | 108.63936 | 22926 ft | 406 kts | 99° |
| 2026-05-07 01:36 | -6.71485 | 108.66733 | 22925 ft | 406 kts | 99° |
| 2026-05-07 01:36 | -6.71962 | 108.69532 | 22927 ft | 406 kts | 99° |
| 2026-05-07 01:37 | -6.72430 | 108.72339 | 22925 ft | 407 kts | 99° |
| 2026-05-07 01:37 | -6.72887 | 108.75147 | 22923 ft | 407 kts | 99° |
| 2026-05-07 01:37 | -6.73338 | 108.77957 | 22920 ft | 407 kts | 99° |
| 2026-05-07 01:37 | -6.73784 | 108.80768 | 22920 ft | 407 kts | 98° |
| 2026-05-07 01:38 | -6.74229 | 108.83580 | 22919 ft | 407 kts | 99° |
| 2026-05-07 01:38 | -6.74676 | 108.86389 | 22918 ft | 407 kts | 99° |
| 2026-05-07 01:38 | -6.75123 | 108.89196 | 22906 ft | 406 kts | 99° |
| 2026-05-07 01:38 | -6.75568 | 108.92001 | 22897 ft | 407 kts | 99° |
| 2026-05-07 01:39 | -6.76017 | 108.94814 | 22902 ft | 407 kts | 99° |
| 2026-05-07 01:39 | -6.76466 | 108.97623 | 22906 ft | 407 kts | 99° |
| 2026-05-07 01:39 | -6.76914 | 109.00433 | 22902 ft | 407 kts | 99° |
| 2026-05-07 01:39 | -6.77361 | 109.03240 | 22907 ft | 407 kts | 99° |
| 2026-05-07 01:40 | -6.77812 | 109.06049 | 22909 ft | 407 kts | 99° |
| 2026-05-07 01:40 | -6.78260 | 109.08858 | 22908 ft | 407 kts | 99° |
| 2026-05-07 01:40 | -6.78709 | 109.11668 | 22905 ft | 407 kts | 99° |
| 2026-05-07 01:40 | -6.79155 | 109.14479 | 22905 ft | 407 kts | 98° |
| 2026-05-07 01:41 | -6.79574 | 109.17264 | 22684 ft | 397 kts | 98° |
| 2026-05-07 01:41 | -6.79958 | 109.19979 | 22435 ft | 389 kts | 98° |
| 2026-05-07 01:41 | -6.80327 | 109.22661 | 22137 ft | 384 kts | 97° |
| 2026-05-07 01:41 | -6.80688 | 109.25306 | 21666 ft | 380 kts | 97° |
| 2026-05-07 01:42 | -6.81047 | 109.27931 | 21183 ft | 377 kts | 98° |
| 2026-05-07 01:42 | -6.81409 | 109.30536 | 20686 ft | 375 kts | 98° |
| 2026-05-07 01:42 | -6.81771 | 109.33121 | 20201 ft | 372 kts | 98° |
| 2026-05-07 01:42 | -6.82134 | 109.35685 | 19714 ft | 369 kts | 98° |
| 2026-05-07 01:43 | -6.82498 | 109.38230 | 19232 ft | 366 kts | 98° |
| 2026-05-07 01:43 | -6.82860 | 109.40757 | 18755 ft | 364 kts | 98° |
| 2026-05-07 01:43 | -6.83216 | 109.43264 | 18280 ft | 361 kts | 98° |
| 2026-05-07 01:43 | -6.83566 | 109.45756 | 17812 ft | 359 kts | 98° |
| 2026-05-07 01:44 | -6.83911 | 109.48232 | 17347 ft | 356 kts | 98° |
| 2026-05-07 01:44 | -6.84254 | 109.50692 | 16886 ft | 354 kts | 98° |
| 2026-05-07 01:44 | -6.84595 | 109.53135 | 16434 ft | 351 kts | 98° |
| 2026-05-07 01:44 | -6.84934 | 109.55560 | 15987 ft | 349 kts | 98° |
| 2026-05-07 01:45 | -6.85270 | 109.57970 | 15530 ft | 346 kts | 98° |
| 2026-05-07 01:45 | -6.85605 | 109.60364 | 15098 ft | 345 kts | 98° |
| 2026-05-07 01:45 | -6.85939 | 109.62742 | 14659 ft | 342 kts | 98° |
| 2026-05-07 01:45 | -6.86272 | 109.65105 | 14219 ft | 340 kts | 98° |
| 2026-05-07 01:46 | -6.86602 | 109.67454 | 13775 ft | 338 kts | 98° |
| 2026-05-07 01:46 | -6.86931 | 109.69787 | 13337 ft | 335 kts | 98° |
| 2026-05-07 01:46 | -6.87256 | 109.72102 | 12896 ft | 333 kts | 97° |
| 2026-05-07 01:46 | -6.87579 | 109.74400 | 12451 ft | 330 kts | 97° |
| 2026-05-07 01:47 | -6.87900 | 109.76680 | 12011 ft | 328 kts | 97° |
| 2026-05-07 01:47 | -6.88218 | 109.78942 | 11567 ft | 325 kts | 97° |
| 2026-05-07 01:47 | -6.88534 | 109.81183 | 11131 ft | 322 kts | 97° |
| 2026-05-07 01:47 | -6.88845 | 109.83405 | 10686 ft | 319 kts | 97° |
| 2026-05-07 01:48 | -6.89153 | 109.85605 | 10267 ft | 316 kts | 97° |
| 2026-05-07 01:48 | -6.89416 | 109.87776 | 10032 ft | 306 kts | 91° |
| 2026-05-07 01:48 | -6.89308 | 109.89619 | 9904 ft | 296 kts | 80° |
| 2026-05-07 01:48 | -6.88971 | 109.91409 | 9623 ft | 291 kts | 79° |
| 2026-05-07 01:49 | -6.88595 | 109.93401 | 9174 ft | 290 kts | 79° |
| 2026-05-07 01:49 | -6.88225 | 109.95389 | 8784 ft | 287 kts | 79° |
| 2026-05-07 01:49 | -6.87861 | 109.97361 | 8297 ft | 288 kts | 80° |
| 2026-05-07 01:49 | -6.87499 | 109.99324 | 7980 ft | 282 kts | 80° |
| 2026-05-07 01:50 | -6.87140 | 110.01254 | 7546 ft | 280 kts | 80° |
| 2026-05-07 01:50 | -6.86780 | 110.03175 | 7117 ft | 279 kts | 80° |
| 2026-05-07 01:50 | -6.86423 | 110.05081 | 6703 ft | 276 kts | 80° |
| 2026-05-07 01:50 | -6.86071 | 110.06969 | 6269 ft | 272 kts | 80° |
| 2026-05-07 01:51 | -6.85730 | 110.08822 | 5573 ft | 268 kts | 80° |
| 2026-05-07 01:51 | -6.85395 | 110.10648 | 4965 ft | 262 kts | 81° |
| 2026-05-07 01:51 | -6.85064 | 110.12453 | 4495 ft | 263 kts | 80° |
| 2026-05-07 01:51 | -6.84731 | 110.14254 | 4037 ft | 261 kts | 81° |
| 2026-05-07 01:52 | -6.84400 | 110.16041 | 3583 ft | 259 kts | 81° |
| 2026-05-07 01:52 | -6.84078 | 110.17787 | 3427 ft | 246 kts | 81° |
| 2026-05-07 01:52 | -6.83777 | 110.19419 | 3362 ft | 229 kts | 82° |
| 2026-05-07 01:52 | -6.83715 | 110.20443 | 3298 ft | 214 kts | 96° |
| 2026-05-07 01:53 | -6.84080 | 110.21860 | 3179 ft | 209 kts | 116° |
| 2026-05-07 01:53 | -6.85205 | 110.23344 | 3087 ft | 192 kts | 132° |
| 2026-05-07 01:53 | -6.85792 | 110.23997 | 3039 ft | 190 kts | 130° |
| 2026-05-07 01:53 | -6.86654 | 110.24992 | 2876 ft | 185 kts | 130° |
| 2026-05-07 01:54 | -6.87478 | 110.25959 | 2646 ft | 178 kts | 129° |
| 2026-05-07 01:54 | -6.88268 | 110.26895 | 2416 ft | 173 kts | 129° |
| 2026-05-07 01:54 | -6.89026 | 110.27791 | 2195 ft | 162 kts | 129° |
| 2026-05-07 01:54 | -6.89734 | 110.28630 | 1988 ft | 152 kts | 129° |
| 2026-05-07 01:55 | -6.90389 | 110.29409 | 1795 ft | 140 kts | 129° |
| 2026-05-07 01:55 | -6.91023 | 110.30159 | 1616 ft | 140 kts | 129° |
| 2026-05-07 01:55 | -6.91652 | 110.30902 | 1425 ft | 139 kts | 129° |
| 2026-05-07 01:55 | -6.92278 | 110.31643 | 1246 ft | 139 kts | 129° |
| 2026-05-07 01:56 | -6.92900 | 110.32381 | 1055 ft | 136 kts | 129° |
| 2026-05-07 01:56 | -6.93512 | 110.33106 | 875 ft | 135 kts | 129° |
| 2026-05-07 01:56 | -6.94122 | 110.33829 | 691 ft | 135 kts | 129° |
| 2026-05-07 01:56 | -6.94732 | 110.34551 | 515 ft | 136 kts | 129° |
| 2026-05-07 01:57 | -6.95343 | 110.35277 | 332 ft | 136 kts | 129° |
| 2026-05-07 01:57 | -6.95945 | 110.36010 | 153 ft | 137 kts | 128° |
| 2026-05-07 01:57 | -6.96567 | 110.36736 | 14 ft | 133 kts | 132° |
| 2026-05-07 01:57 | -6.97069 | 110.37335 | 6 ft | 76 kts | 135° |
| 2026-05-07 01:58 | -6.97258 | 110.37550 | 5 ft | 24 kts | 128° |
| 2026-05-07 01:58 | -6.97321 | 110.37642 | 5 ft | 9 kts | 100° |
| 2026-05-07 01:58 | -6.97334 | 110.37662 | 5 ft | 1 kts | 194° |
| 2026-05-07 01:58 | -6.97333 | 110.37637 | 5 ft | 7 kts | 298° |
| 2026-05-07 01:59 | -6.97304 | 110.37602 | 7 ft | 6 kts | 311° |
| 2026-05-07 01:59 | -6.97278 | 110.37572 | 5 ft | 5 kts | 313° |
| 2026-05-07 01:59 | -6.97249 | 110.37540 | 5 ft | 8 kts | 313° |
| 2026-05-07 01:59 | -6.97194 | 110.37480 | 5 ft | 15 kts | 311° |
| 2026-05-07 02:00 | -6.97104 | 110.37420 | 4 ft | 16 kts | 23° |
| 2026-05-07 02:00 | -6.97042 | 110.37465 | 13 ft | 6 kts | 39° |
| 2026-05-07 02:00 | -6.97025 | 110.37480 | 15 ft | 2 kts | 39° |
| 2026-05-07 02:00 | -6.96994 | 110.37505 | 17 ft | 9 kts | 39° |
| 2026-05-07 02:01 | -6.96955 | 110.37538 | 18 ft | 6 kts | 39° |
| 2026-05-07 02:01 | -6.96927 | 110.37560 | 18 ft | 4 kts | 32° |
| 2026-05-07 02:01 | -6.96900 | 110.37553 | 19 ft | 6 kts | 323° |
| 2026-05-07 02:01 | -6.96866 | 110.37515 | 20 ft | 7 kts | 310° |
| 2026-05-07 02:02 | -6.96836 | 110.37478 | 20 ft | 6 kts | 310° |
| 2026-05-07 02:02 | -6.96795 | 110.37431 | 20 ft | 12 kts | 311° |
| 2026-05-07 02:02 | -6.96740 | 110.37382 | 19 ft | 8 kts | 14° |
| 2026-05-07 02:02 | -6.96702 | 110.37411 | 19 ft | 6 kts | 40° |
| 2026-05-07 02:03 | -6.96689 | 110.37422 | 19 ft | 1 kts | 39° |
| 2026-05-07 02:03 | -6.96685 | 110.37425 | 19 ft | 0 kts | 39° |